Time;durP1;ratioP1;P1;durP2;ratioP2;P2;SDS_P1;SDS_P2;PMS_P1;PMS_P2;Temp;Humidity;BMP_temperature;BMP_pressure;BME280_temperature;BME280_humidity;BME280_pressure;Samples;Min_cycle;Max_cycle;Signal;HPM_P1;HPM_P2
2021/03/09 00:00:08;;;;;;;10.55;9.55;;;;;;;18.90;39.40;101793.22;5075984;28;20493;-83
2021/03/09 00:02:34;;;;;;;14.10;10.13;;;;;;;18.98;39.31;101792.28;5075978;28;20028;-81
2021/03/09 00:05:00;;;;;;;12.75;10.13;;;;;;;19.33;38.44;101789.88;5075972;28;20020;-81
2021/03/09 00:07:26;;;;;;;12.63;10.20;;;;;;;19.41;38.36;101785.34;5075898;28;20029;-83
2021/03/09 00:09:51;;;;;;;12.15;9.90;;;;;;;19.40;38.29;101786.50;5075826;28;20155;-79
2021/03/09 00:12:17;;;;;;;16.52;10.35;;;;;;;19.40;38.54;101779.00;5075729;28;20086;-82
2021/03/09 00:14:42;;;;;;;16.40;10.82;;;;;;;19.35;38.45;101782.03;5075585;28;20021;-80
2021/03/09 00:17:08;;;;;;;12.85;10.32;;;;;;;19.45;38.39;101774.41;5075693;28;20035;-81
2021/03/09 00:19:34;;;;;;;11.85;10.25;;;;;;;19.45;38.12;101771.63;5075714;28;20028;-81
2021/03/09 00:21:59;;;;;;;15.07;10.80;;;;;;;19.54;38.07;101778.66;5075432;28;20354;-82
2021/03/09 00:24:25;;;;;;;12.98;9.77;;;;;;;19.49;38.24;101781.66;5075632;28;20107;-79
2021/03/09 00:26:50;;;;;;;11.20;9.70;;;;;;;19.37;38.36;101774.16;5075531;28;20064;-79
2021/03/09 00:29:16;;;;;;;14.95;10.45;;;;;;;19.36;38.43;101777.28;5075369;28;20486;-79
2021/03/09 00:31:42;;;;;;;14.45;10.10;;;;;;;19.35;38.56;101772.91;5075508;28;20029;-82
2021/03/09 00:34:07;;;;;;;11.57;9.32;;;;;;;19.51;38.08;101779.34;5075521;28;20031;-79
2021/03/09 00:36:33;;;;;;;15.20;10.05;;;;;;;19.39;38.30;101780.16;5075278;28;20371;-81
2021/03/09 00:38:58;;;;;;;12.13;9.82;;;;;;;19.29;38.41;101783.41;5075398;28;20029;-79
2021/03/09 00:41:24;;;;;;;10.07;9.07;;;;;;;19.32;38.31;101779.94;5075067;28;20029;-79
2021/03/09 00:43:49;;;;;;;12.65;9.65;;;;;;;19.35;38.38;101782.03;5075252;28;20099;-82
2021/03/09 00:46:15;;;;;;;10.60;9.25;;;;;;;19.25;38.57;101785.25;5075022;28;20054;-82
2021/03/09 00:48:41;;;;;;;13.60;9.30;;;;;;;19.28;38.52;101787.34;5075054;28;20043;-82
2021/03/09 00:51:07;;;;;;;16.85;9.95;;;;;;;18.95;39.21;101772.78;5073802;28;20463;-79
2021/03/09 00:53:33;;;;;;;12.82;9.50;;;;;;;18.85;39.30;101785.94;5074914;28;20455;-82
2021/03/09 00:55:59;;;;;;;11.10;8.82;;;;;;;19.15;38.74;101782.16;5075034;28;20029;-82
2021/03/09 00:58:25;;;;;;;10.43;9.32;;;;;;;19.19;38.53;101778.31;5073993;28;20048;-82
2021/03/09 01:00:51;;;;;;;14.82;9.90;;;;;;;19.18;38.35;101775.91;5075014;28;20082;-80
2021/03/09 01:03:16;;;;;;;12.20;9.02;;;;;;;18.88;39.21;101772.53;5074873;28;20410;-81
2021/03/09 01:05:42;;;;;;;16.10;9.68;;;;;;;19.08;38.85;101774.41;5074874;28;20085;-79
2021/03/09 01:08:08;;;;;;;13.07;9.65;;;;;;;19.14;38.63;101767.50;5074719;28;20029;-79
2021/03/09 01:10:34;;;;;;;12.77;9.10;;;;;;;19.02;38.99;101761.94;5074748;28;20029;-82
2021/03/09 01:13:00;;;;;;;9.63;8.63;;;;;;;18.90;39.02;101767.47;5073297;28;20506;-82
2021/03/09 01:15:25;;;;;;;12.05;7.93;;;;;;;18.74;39.37;101767.31;5074908;28;20025;-81
2021/03/09 01:17:51;;;;;;;14.23;9.80;;;;;;;18.82;39.29;101770.00;5074476;28;20433;-79
2021/03/09 01:20:17;;;;;;;10.90;8.50;;;;;;;18.87;39.23;101777.25;5074480;28;20035;-79
2021/03/09 01:22:42;;;;;;;14.57;8.50;;;;;;;18.88;39.02;101773.34;5074556;28;20470;-79
2021/03/09 01:25:08;;;;;;;11.95;8.98;;;;;;;18.84;39.13;101777.97;5074659;28;20042;-79
2021/03/09 01:27:34;;;;;;;10.52;8.63;;;;;;;18.74;39.22;101770.91;5074429;28;20470;-80
2021/03/09 01:30:00;;;;;;;11.02;9.35;;;;;;;18.79;39.45;101769.88;5074274;28;20032;-81
2021/03/09 01:32:25;;;;;;;10.27;8.90;;;;;;;18.82;39.34;101771.97;5074597;28;20020;-81
2021/03/09 01:34:51;;;;;;;11.20;9.00;;;;;;;18.73;39.44;101765.72;5074297;28;20520;-79
2021/03/09 01:37:17;;;;;;;12.50;8.55;;;;;;;18.57;39.82;101757.22;5072871;28;20074;-80
2021/03/09 01:39:43;;;;;;;10.13;8.15;;;;;;;18.45;40.31;101762.75;5074160;28;20028;-79
2021/03/09 01:42:09;;;;;;;10.23;8.98;;;;;;;18.54;39.97;101757.91;5073622;28;20033;-83
2021/03/09 01:44:34;;;;;;;11.75;8.73;;;;;;;18.44;40.27;101759.19;5088963;28;20028;-80
2021/03/09 01:47:02;;;;;;;9.48;8.10;;;;;;;18.33;40.62;101769.03;5074137;28;20448;-82
2021/03/09 01:49:34;;;;;;;16.05;7.85;;;;;;;18.38;40.58;101765.25;5074120;28;20107;-79
2021/03/09 01:52:04;;;;;;;9.60;8.60;;;;;;;18.49;40.14;101753.41;5073415;28;20382;-80
2021/03/09 01:54:29;;;;;;;10.38;9.38;;;;;;;18.51;40.16;101764.13;5073554;28;20032;-78
2021/03/09 01:56:55;;;;;;;13.27;8.68;;;;;;;18.58;39.91;101761.59;5073977;28;20479;-83
2021/03/09 01:59:22;;;;;;;9.52;8.52;;;;;;;18.61;39.94;101755.41;5073509;28;20127;-80
2021/03/09 02:01:48;;;;;;;11.00;8.65;;;;;;;18.68;39.90;101761.22;5073657;28;20571;-82
2021/03/09 02:04:14;;;;;;;10.48;8.60;;;;;;;18.68;39.70;101757.66;5073711;28;20028;-79
2021/03/09 02:06:39;;;;;;;11.40;9.18;;;;;;;18.63;40.07;101763.34;5073515;28;20024;-82
2021/03/09 02:09:06;;;;;;;12.70;8.93;;;;;;;18.69;39.80;101762.03;5072635;28;20033;-79
2021/03/09 02:12:03;;;;;;;11.90;9.20;;;;;;;18.75;39.86;101766.19;5073593;28;20036;-80
2021/03/09 02:14:43;;;;;;;10.40;8.57;;;;;;;18.71;39.89;101760.53;5073585;28;20035;-82
2021/03/09 02:17:26;;;;;;;11.05;8.07;;;;;;;18.74;39.73;101757.06;5073629;28;20028;-82
2021/03/09 02:20:19;;;;;;;9.38;8.32;;;;;;;18.64;40.01;101760.25;5073295;28;20044;-79
2021/03/09 02:23:09;;;;;;;9.77;8.38;;;;;;;18.49;40.62;101760.91;5073325;28;20107;-79
2021/03/09 02:26:13;;;;;;;;;;;;;;;18.54;40.29;101760.69;5073778;28;20394;-82
2021/03/09 02:29:10;;;;;;;9.55;8.65;;;;;;;18.46;40.56;101764.34;5011242;28;19913;-79
2021/03/09 02:31:39;;;;;;;10.70;9.60;;;;;;;18.33;40.63;101762.69;5011220;28;20029;-82
2021/03/09 02:34:28;;;;;;;10.23;9.23;;;;;;;18.42;40.72;101766.19;5054596;28;20040;-79
2021/03/09 02:36:55;;;;;;;11.90;9.35;;;;;;;18.53;40.15;101754.34;5073183;28;20470;-82
2021/03/09 02:39:23;;;;;;;10.25;9.30;;;;;;;18.53;40.28;101750.78;5073008;28;20433;-80
2021/03/09 02:41:49;;;;;;;11.63;9.25;;;;;;;18.45;40.44;101746.16;5072895;28;20054;-82
2021/03/09 02:44:23;;;;;;;10.82;8.98;;;;;;;18.49;40.37;101744.28;5072951;28;20388;-82
2021/03/09 02:46:49;;;;;;;10.27;8.93;;;;;;;18.45;40.58;101737.84;5072958;28;20025;-79
2021/03/09 02:49:16;;;;;;;10.50;8.73;;;;;;;18.42;40.60;101735.75;5071607;28;20028;-78
2021/03/09 02:51:43;;;;;;;10.75;9.52;;;;;;;18.45;40.58;101726.78;5072797;28;20411;-81
2021/03/09 02:54:11;;;;;;;10.93;9.38;;;;;;;18.47;40.37;101719.72;5070132;28;20055;-80
2021/03/09 02:56:38;;;;;;;10.30;9.10;;;;;;;18.49;40.33;101708.31;5072937;28;20475;-79
2021/03/09 02:59:06;;;;;;;10.30;9.20;;;;;;;18.41;40.14;101709.22;5072573;28;20052;-79
2021/03/09 03:01:33;;;;;;;10.32;9.32;;;;;;;18.30;40.33;101708.88;5072639;28;20024;-81
2021/03/09 03:04:00;;;;;;;11.73;10.27;;;;;;;18.20;40.30;101699.03;5072691;28;20020;-79
2021/03/09 03:06:28;;;;;;;14.40;10.10;;;;;;;18.12;40.32;101699.91;5072591;28;20107;-82
2021/03/09 03:08:56;;;;;;;10.52;9.43;;;;;;;18.09;40.36;101697.84;5072689;28;20024;-81
2021/03/09 03:11:23;;;;;;;16.00;9.48;;;;;;;18.02;40.42;101687.34;5071310;28;20032;-79
2021/03/09 03:13:52;;;;;;;10.65;9.60;;;;;;;18.01;40.26;101684.91;5072538;28;20375;-79
2021/03/09 03:16:20;;;;;;;11.35;9.48;;;;;;;17.90;40.52;101689.25;5072562;28;20028;-79
2021/03/09 03:18:47;;;;;;;12.95;9.90;;;;;;;17.90;40.25;101689.25;5072455;28;20031;-82
2021/03/09 03:21:15;;;;;;;10.40;9.38;;;;;;;17.83;40.54;101684.25;5072152;28;20031;-79
2021/03/09 03:23:43;;;;;;;11.20;9.52;;;;;;;17.74;40.76;101680.75;5072456;28;20413;-81
2021/03/09 03:26:12;;;;;;;11.00;9.93;;;;;;;17.72;40.91;101683.88;5072591;28;20039;-79
2021/03/09 03:28:45;;;;;;;11.93;10.38;;;;;;;17.62;41.14;101678.75;5072436;28;20107;-82
2021/03/09 03:31:11;;;;;;;12.00;9.95;;;;;;;17.59;41.54;101676.63;5072589;28;20047;-80
2021/03/09 03:33:37;;;;;;;12.68;11.10;;;;;;;17.72;41.20;101675.59;5072382;28;20025;-82
2021/03/09 03:36:06;;;;;;;11.40;9.63;;;;;;;17.71;41.07;101670.41;5072374;28;20543;-83
2021/03/09 03:38:36;;;;;;;11.68;9.88;;;;;;;17.81;41.07;101669.97;5072296;28;20112;-82
2021/03/09 03:41:04;;;;;;;11.65;10.40;;;;;;;17.77;41.54;101671.00;5070923;28;20383;-78
2021/03/09 03:43:30;;;;;;;15.15;10.70;;;;;;;17.94;41.11;101673.59;5072594;28;20062;-81
2021/03/09 03:45:56;;;;;;;16.05;11.00;;;;;;;17.97;40.90;101668.19;5072494;28;20477;-82
2021/03/09 03:48:23;;;;;;;13.93;11.25;;;;;;;18.06;40.82;101675.59;5072299;28;20185;-79
2021/03/09 03:50:50;;;;;;;13.27;10.95;;;;;;;18.07;41.15;101677.22;5072192;28;20135;-80
2021/03/09 03:53:25;;;;;;;13.85;11.77;;;;;;;18.02;41.17;101678.22;5070862;28;20410;-79
2021/03/09 03:56:09;;;;;;;12.23;10.15;;;;;;;18.09;41.34;101672.97;5072258;28;20111;-79
2021/03/09 03:58:44;;;;;;;12.10;10.48;;;;;;;18.12;41.24;101677.78;5071926;28;20051;-78
2021/03/09 04:01:11;;;;;;;12.20;10.95;;;;;;;18.13;41.14;101675.84;5072012;28;20502;-78
2021/03/09 04:03:38;;;;;;;13.30;10.93;;;;;;;18.22;41.24;101673.81;5072037;28;20032;-80
2021/03/09 04:06:06;;;;;;;12.23;11.02;;;;;;;18.23;41.03;101678.19;5072027;28;20053;-80
2021/03/09 04:08:37;;;;;;;11.20;10.10;;;;;;;18.22;41.06;101679.34;5071984;28;20028;-79
2021/03/09 04:11:04;;;;;;;12.48;10.98;;;;;;;18.35;40.77;101677.38;5072021;28;20060;-79
2021/03/09 04:13:31;;;;;;;12.57;10.50;;;;;;;18.36;40.70;101676.22;5072029;28;20020;-78
2021/03/09 04:15:59;;;;;;;13.32;10.68;;;;;;;18.30;40.98;101676.47;5072015;28;20498;-79
2021/03/09 04:18:26;;;;;;;10.60;9.13;;;;;;;18.36;40.84;101676.22;5072098;28;20021;-79
2021/03/09 04:20:53;;;;;;;11.75;10.55;;;;;;;18.42;40.65;101675.66;5072124;28;20072;-79
2021/03/09 04:23:19;;;;;;;13.40;10.02;;;;;;;18.34;40.73;101667.47;5071982;28;20028;-79
2021/03/09 04:25:47;;;;;;;12.30;10.95;;;;;;;18.44;40.75;101664.25;5071960;28;20103;-78
2021/03/09 04:28:13;;;;;;;11.50;10.38;;;;;;;18.29;41.07;101665.75;5071780;28;20024;-78
2021/03/09 04:30:40;;;;;;;23.75;11.00;;;;;;;18.40;40.75;101663.34;5071945;28;20387;-79
2021/03/09 04:33:07;;;;;;;11.98;10.25;;;;;;;18.33;40.98;101663.91;5073849;28;20021;-79
2021/03/09 04:35:34;;;;;;;12.18;10.25;;;;;;;18.37;40.92;101664.03;5075433;28;20024;-81
2021/03/09 04:38:00;;;;;;;11.30;10.23;;;;;;;18.41;40.52;101651.94;5075282;28;20122;-81
2021/03/09 04:40:26;;;;;;;11.90;9.88;;;;;;;18.42;40.53;101642.47;5075185;28;20039;-79
2021/03/09 04:42:52;;;;;;;11.35;10.02;;;;;;;18.36;40.69;101631.97;5075366;28;20387;-82
2021/03/09 04:45:18;;;;;;;11.65;10.23;;;;;;;18.43;40.58;101641.31;5075310;28;20548;-82
2021/03/09 04:47:44;;;;;;;11.85;9.57;;;;;;;18.46;40.47;101634.31;5075175;28;20115;-82
2021/03/09 04:50:14;;;;;;;10.32;9.30;;;;;;;18.44;40.68;101640.19;5075134;28;20113;-82
2021/03/09 04:52:40;;;;;;;;;;;;;;;18.08;41.44;101640.94;5075597;28;20013;-81
2021/03/09 04:55:06;;;;;;;12.50;9.55;;;;;;;18.26;41.00;101631.28;5075205;28;20050;-78
2021/03/09 04:57:40;;;;;;;12.40;9.40;;;;;;;18.29;40.96;101630.59;5075142;28;20132;-79
2021/03/09 05:00:08;;;;;;;14.57;9.65;;;;;;;18.34;40.91;101629.56;5074278;28;20545;-82
2021/03/09 05:02:34;;;;;;;12.07;9.55;;;;;;;18.27;41.13;101640.38;5073723;28;20433;-82
2021/03/09 05:05:00;;;;;;;11.38;9.70;;;;;;;18.36;40.84;101634.72;5074680;28;20024;-80
2021/03/09 05:07:26;;;;;;;11.02;9.35;;;;;;;18.38;40.64;101626.91;5074768;28;20115;-82
2021/03/09 05:09:51;;;;;;;10.13;9.02;;;;;;;18.39;40.83;101634.88;5075012;28;20028;-79
2021/03/09 05:12:17;;;;;;;10.93;9.85;;;;;;;18.36;41.02;101624.47;5074811;28;20398;-78
2021/03/09 05:14:42;;;;;;;10.50;9.50;;;;;;;18.34;40.93;101623.22;5074729;28;20021;-79
2021/03/09 05:17:08;;;;;;;10.32;9.23;;;;;;;18.40;40.89;101628.19;5074644;28;20066;-78
2021/03/09 05:19:33;;;;;;;13.10;9.52;;;;;;;18.42;40.80;101628.63;5074693;28;20028;-82
2021/03/09 05:21:59;;;;;;;11.00;9.32;;;;;;;18.43;40.79;101629.44;5074539;28;20063;-82
2021/03/09 05:24:25;;;;;;;12.43;9.65;;;;;;;18.35;41.49;101630.34;5074581;28;20100;-78
2021/03/09 05:26:50;;;;;;;9.32;8.40;;;;;;;18.38;40.92;101624.94;5074459;28;20033;-79
2021/03/09 05:29:16;;;;;;;14.63;9.02;;;;;;;18.35;40.75;101613.75;5074747;28;20031;-80
2021/03/09 05:31:42;;;;;;;10.10;9.07;;;;;;;18.22;41.10;101613.75;5074290;28;20543;-81
2021/03/09 05:34:07;;;;;;;11.20;9.02;;;;;;;18.22;40.99;101618.47;5074327;28;20020;-79
2021/03/09 05:36:33;;;;;;;11.13;8.55;;;;;;;18.17;40.92;101608.44;5074298;28;20021;-78
2021/03/09 05:38:59;;;;;;;11.68;9.27;;;;;;;18.09;40.92;101609.34;5074426;28;20026;-78
2021/03/09 05:41:25;;;;;;;11.82;10.10;;;;;;;18.06;40.78;101607.28;5074109;28;20055;-79
2021/03/09 05:43:54;;;;;;;10.70;8.95;;;;;;;17.87;41.04;101601.47;5074036;28;20031;-80
2021/03/09 05:46:20;;;;;;;12.07;8.55;;;;;;;17.82;41.27;101591.41;5074054;28;20676;-78
2021/03/09 05:48:46;;;;;;;11.07;9.15;;;;;;;17.68;41.52;101593.63;5073996;28;20024;-81
2021/03/09 05:51:11;;;;;;;10.60;8.55;;;;;;;17.77;41.30;101599.13;5074148;28;20029;-82
2021/03/09 05:53:37;;;;;;;12.57;9.23;;;;;;;17.80;41.24;101596.50;5073874;28;20399;-80
2021/03/09 05:56:06;;;;;;;9.95;8.77;;;;;;;17.78;41.36;101592.47;5072589;28;20142;-79
2021/03/09 05:58:33;;;;;;;10.65;8.68;;;;;;;17.88;41.23;101592.00;5073620;28;20028;-80
2021/03/09 06:00:59;;;;;;;8.65;7.75;;;;;;;17.93;41.13;101576.03;5073809;28;20038;-83
2021/03/09 06:03:26;;;;;;;11.88;9.23;;;;;;;17.98;40.89;101561.97;5073731;28;20054;-78
2021/03/09 06:05:51;;;;;;;9.82;8.88;;;;;;;18.06;40.87;101578.78;5073780;28;20111;-81
2021/03/09 06:08:17;;;;;;;8.60;7.68;;;;;;;17.94;41.12;101569.34;5073491;28;20401;-79
2021/03/09 06:10:43;;;;;;;9.88;8.88;;;;;;;18.00;41.11;101572.69;5073508;28;20077;-80
2021/03/09 06:13:09;;;;;;;9.82;8.00;;;;;;;18.03;41.14;101574.75;5073550;28;20035;-82
2021/03/09 06:15:53;;;;;;;10.27;8.05;;;;;;;17.87;41.46;101562.75;5073547;28;20029;-80
2021/03/09 06:18:25;;;;;;;9.90;8.90;;;;;;;17.78;41.58;101551.81;5073582;28;20044;-79
2021/03/09 06:21:08;;;;;;;11.93;8.63;;;;;;;17.88;41.59;101547.78;5073195;28;20037;-79
2021/03/09 06:23:34;;;;;;;8.48;7.63;;;;;;;18.09;41.03;101554.03;5073479;28;20020;-81
2021/03/09 06:26:00;;;;;;;11.23;9.02;;;;;;;18.01;41.14;101543.91;5073319;28;20024;-81
2021/03/09 06:28:32;;;;;;;9.52;7.88;;;;;;;18.03;41.16;101561.75;5071923;28;20507;-78
2021/03/09 06:31:10;;;;;;;9.30;8.32;;;;;;;17.89;41.72;101577.84;5073199;28;20024;-79
2021/03/09 06:33:36;;;;;;;9.13;7.97;;;;;;;18.02;41.44;101587.78;5073079;28;20016;-79
2021/03/09 06:36:10;;;;;;;12.90;8.50;;;;;;;18.02;41.51;101592.50;5073097;28;20386;-81
2021/03/09 06:38:37;;;;;;;11.23;8.70;;;;;;;18.19;41.11;101599.78;5073070;28;20021;-82
2021/03/09 06:41:16;;;;;;;11.27;8.77;;;;;;;18.05;41.53;101596.53;5072821;28;20043;-78
2021/03/09 06:43:46;;;;;;;9.23;8.32;;;;;;;18.18;40.90;101596.22;5072392;28;20086;-77
2021/03/09 06:46:22;;;;;;;11.93;7.55;;;;;;;17.90;41.78;101601.56;5072897;28;20478;-80
2021/03/09 06:49:00;;;;;;;14.23;10.73;;;;;;;18.14;41.51;101595.31;5072850;28;20586;-81
2021/03/09 06:51:29;;;;;;;9.52;8.52;;;;;;;18.15;41.44;101596.91;5072552;28;20024;-78
2021/03/09 06:54:13;;;;;;;10.70;8.02;;;;;;;18.13;41.34;101593.66;5073123;28;20067;-79
2021/03/09 06:56:43;;;;;;;9.10;7.47;;;;;;;18.24;41.04;101594.84;5070126;28;20037;-82
2021/03/09 06:59:27;;;;;;;10.00;7.60;;;;;;;18.19;41.36;101585.97;5071247;28;20094;-82
2021/03/09 07:02:09;;;;;;;9.32;7.72;;;;;;;18.08;41.71;101585.63;5072658;28;20032;-81
2021/03/09 07:04:39;;;;;;;8.40;7.53;;;;;;;18.01;41.92;101582.59;5071339;28;20482;-76
2021/03/09 07:07:05;;;;;;;8.70;7.47;;;;;;;18.23;41.47;101581.38;5062395;28;20166;-79
2021/03/09 07:09:32;;;;;;;9.40;6.93;;;;;;;18.06;41.95;101581.56;5053844;28;20512;-84
2021/03/09 07:12:01;;;;;;;13.10;7.28;;;;;;;18.19;41.53;101581.25;5054192;28;20069;-76
2021/03/09 07:14:31;;;;;;;8.55;7.10;;;;;;;18.20;41.68;101582.84;5054582;28;20055;-76
2021/03/09 07:17:00;;;;;;;8.48;7.30;;;;;;;18.19;41.70;101586.78;5055551;28;20025;-75
2021/03/09 07:19:34;;;;;;;8.32;7.53;;;;;;;18.18;41.82;101587.13;5056003;28;20103;-77
2021/03/09 07:22:02;;;;;;;13.27;7.13;;;;;;;18.34;41.44;101587.25;5055966;28;21849;-74
2021/03/09 07:24:28;;;;;;;10.40;7.30;;;;;;;18.23;41.51;101597.97;5056167;28;20070;-74
2021/03/09 07:26:56;;;;;;;9.85;7.13;;;;;;;18.28;41.60;101584.69;5055460;28;20025;-75
2021/03/09 07:29:26;;;;;;;8.50;7.07;;;;;;;18.25;41.73;101590.94;5055294;28;20032;-80
2021/03/09 07:31:55;;;;;;;;;;;;;;;18.33;41.55;101580.09;5055579;28;20140;-75
2021/03/09 07:34:21;;;;;;;11.23;6.88;;;;;;;18.45;41.26;101571.81;5055059;28;19920;-75
2021/03/09 07:36:48;;;;;;;11.77;6.97;;;;;;;18.27;41.67;101565.69;5055034;28;20035;-83
2021/03/09 07:39:15;;;;;;;11.30;8.77;;;;;;;18.12;42.31;101564.41;5056002;28;20558;-78
2021/03/09 07:41:41;;;;;;;13.00;10.10;;;;;;;18.15;42.17;101563.72;5053459;28;20115;-78
2021/03/09 07:44:07;;;;;;;9.02;7.30;;;;;;;18.32;41.95;101556.34;5055318;28;20115;-77
2021/03/09 07:46:33;;;;;;;8.70;7.13;;;;;;;18.26;42.22;101545.50;5055268;28;20028;-79
2021/03/09 07:48:59;;;;;;;10.30;6.82;;;;;;;18.25;42.09;101552.19;5054891;28;20028;-76
2021/03/09 07:51:24;;;;;;;7.18;6.40;;;;;;;18.35;42.22;101533.53;5058617;28;20425;-76
2021/03/09 07:54:16;;;;;;;8.38;6.97;;;;;;;18.39;42.10;101526.97;5071550;28;20066;-77
2021/03/09 07:57:18;;;;;;;9.60;6.90;;;;;;;18.24;42.55;101528.47;5070111;28;20025;-76
2021/03/09 08:00:01;;;;;;;14.15;7.72;;;;;;;18.43;42.07;101530.63;5070611;28;20069;-80
2021/03/09 08:02:47;;;;;;;8.27;6.68;;;;;;;18.43;42.23;101507.69;5064625;28;20063;-83
2021/03/09 08:05:21;;;;;;;11.45;7.47;;;;;;;18.65;41.72;101518.25;5070274;28;20017;-79
2021/03/09 08:08:04;;;;;;;11.13;7.10;;;;;;;18.57;42.03;101497.06;5073302;28;20078;-78
2021/03/09 08:10:30;;;;;;;9.85;7.68;;;;;;;18.43;42.46;101491.88;5075222;28;20090;-81
2021/03/09 08:13:07;;;;;;;11.77;7.57;;;;;;;18.45;42.59;101486.03;5074887;28;20020;-78
2021/03/09 08:15:35;;;;;;;7.90;6.72;;;;;;;18.71;41.94;101485.66;5075501;28;20104;-80
2021/03/09 08:18:22;;;;;;;11.38;7.80;;;;;;;18.79;41.98;101476.41;5075578;28;20032;-79
2021/03/09 08:20:54;;;;;;;14.32;7.13;;;;;;;18.74;42.06;101484.94;5073290;28;20368;-80
2021/03/09 08:23:35;;;;;;;14.00;7.63;;;;;;;18.53;42.57;101488.66;5072980;28;20028;-80
2021/03/09 08:26:08;;;;;;;11.98;7.70;;;;;;;18.74;42.18;101490.47;5055203;28;20119;-80
2021/03/09 08:28:38;;;;;;;8.07;6.30;;;;;;;18.82;42.10;101484.81;5055288;28;20028;-80
2021/03/09 08:31:10;;;;;;;8.38;6.35;;;;;;;18.89;42.11;101475.91;5059442;28;20029;-79
2021/03/09 08:33:42;;;;;;;12.48;5.85;;;;;;;18.86;42.31;101468.31;5074293;28;20086;-82
2021/03/09 08:36:19;;;;;;;11.50;6.43;;;;;;;19.05;41.65;101479.56;5073658;28;20020;-81
2021/03/09 08:39:00;;;;;;;11.98;6.18;;;;;;;19.03;41.87;101481.03;5074008;28;20028;-80
2021/03/09 08:41:27;;;;;;;9.10;6.35;;;;;;;19.00;41.84;101484.53;5073208;28;20032;-80
2021/03/09 08:44:20;;;;;;;14.60;6.32;;;;;;;19.03;41.98;101478.28;5073780;28;20474;-79
2021/03/09 08:46:59;;;;;;;12.55;9.82;;;;;;;18.97;41.99;101488.00;5074308;28;20028;-80
2021/03/09 08:49:34;;;;;;;17.98;12.05;;;;;;;19.18;41.73;101471.97;5075328;28;20031;-81
2021/03/09 08:52:03;;;;;;;21.13;10.05;;;;;;;19.23;41.65;101485.56;5074970;28;20112;-79
2021/03/09 08:54:30;;;;;;;12.82;8.02;;;;;;;19.08;42.04;101483.56;5074104;28;20036;-80
2021/03/09 08:57:01;;;;;;;13.40;6.13;;;;;;;19.22;41.63;101478.44;5074608;28;20064;-81
2021/03/09 08:59:29;;;;;;;14.52;7.53;;;;;;;19.27;41.42;101480.13;5073940;28;20437;-81
2021/03/09 09:02:08;;;;;;;13.13;6.55;;;;;;;19.24;41.70;101478.06;5070791;28;20040;-81
2021/03/09 09:04:34;;;;;;;9.48;6.38;;;;;;;19.13;41.78;101475.81;5070922;28;20028;-81
2021/03/09 09:07:15;;;;;;;8.75;6.32;;;;;;;19.31;41.38;101475.50;5073697;28;20031;-80
2021/03/09 09:09:41;;;;;;;14.68;10.57;;;;;;;19.22;41.75;101472.88;5070020;28;20032;-80
2021/03/09 09:12:19;;;;;;;13.27;6.85;;;;;;;19.11;42.07;101469.00;5073333;28;20029;-81
2021/03/09 09:14:45;;;;;;;8.80;6.93;;;;;;;19.34;41.39;101464.50;5071441;28;20080;-81
2021/03/09 09:17:11;;;;;;;11.00;6.00;;;;;;;19.21;41.79;101462.97;5072795;28;20028;-81
2021/03/09 09:19:36;;;;;;;10.00;6.88;;;;;;;19.27;41.67;101467.09;5072664;28;20426;-81
2021/03/09 09:22:02;;;;;;;11.65;6.22;;;;;;;19.27;41.87;101469.88;5071454;28;20174;-83
2021/03/09 09:24:27;;;;;;;17.10;15.38;;;;;;;19.51;41.30;101470.88;5072737;28;20028;-81
2021/03/09 09:26:58;;;;;;;21.80;19.42;;;;;;;19.42;41.47;101462.72;5074234;28;20024;-82
2021/03/09 09:29:24;;;;;;;33.30;20.15;;;;;;;19.64;41.04;101466.88;5074382;28;20162;-82
2021/03/09 09:32:01;;;;;;;42.55;38.33;;;;;;;19.70;41.20;101457.16;5069940;28;20111;-81
2021/03/09 09:34:37;;;;;;;30.42;21.65;;;;;;;19.85;40.78;101458.31;5069788;28;20024;-82
2021/03/09 09:37:16;;;;;;;17.80;12.25;;;;;;;19.83;40.94;101453.13;5073844;28;20115;-82
2021/03/09 09:39:43;;;;;;;27.33;16.67;;;;;;;20.07;40.72;101445.75;5072822;28;20029;-82
2021/03/09 09:42:13;;;;;;;24.52;22.15;;;;;;;19.94;40.60;101436.72;5073763;28;20056;-82
2021/03/09 09:44:38;;;;;;;;;;;;;;;19.91;40.79;101438.25;5074342;28;20028;-83
2021/03/09 09:47:04;;;;;;;11.85;5.45;;;;;;;20.01;40.54;101425.00;5072973;28;19923;-83
2021/03/09 09:49:31;;;;;;;12.45;6.95;;;;;;;20.01;40.65;101423.03;5073777;28;20021;-83
2021/03/09 09:51:56;;;;;;;12.63;4.53;;;;;;;19.84;40.97;101418.69;5073860;28;20031;-81
2021/03/09 09:54:22;;;;;;;13.57;5.05;;;;;;;19.94;40.87;101415.34;5072928;28;20025;-81
2021/03/09 09:56:47;;;;;;;9.18;4.75;;;;;;;20.08;40.68;101406.56;5073601;28;20482;-81
2021/03/09 09:59:28;;;;;;;13.10;4.90;;;;;;;19.85;41.06;101411.16;5073370;28;20040;-83
2021/03/09 10:01:54;;;;;;;13.40;5.00;;;;;;;20.19;40.57;101409.59;5086188;28;20394;-84
2021/03/09 10:04:20;;;;;;;10.95;4.68;;;;;;;20.32;40.33;101408.28;5073626;28;20046;-82
2021/03/09 10:06:51;;;;;;;9.45;4.07;;;;;;;20.40;40.19;101398.97;5072135;28;20107;-81
2021/03/09 10:09:20;;;;;;;10.95;3.88;;;;;;;20.37;40.28;101387.78;5073034;28;20085;-81
2021/03/09 10:11:51;;;;;;;11.10;4.30;;;;;;;20.52;40.38;101378.59;5072720;28;20490;-82
2021/03/09 10:14:19;;;;;;;9.55;4.10;;;;;;;20.51;40.12;101396.44;5073089;28;20020;-82
2021/03/09 10:16:46;;;;;;;14.68;4.85;;;;;;;20.56;40.40;101387.81;5069948;28;20475;-83
2021/03/09 10:19:15;;;;;;;6.93;3.60;;;;;;;20.71;39.65;101388.91;5072829;28;20056;-83
2021/03/09 10:21:42;;;;;;;8.95;3.83;;;;;;;20.62;39.97;101405.78;5073175;28;20061;-84
2021/03/09 10:24:08;;;;;;;10.20;4.07;;;;;;;20.51;40.17;101390.88;5070640;28;20386;-85
2021/03/09 10:26:39;;;;;;;12.10;3.67;;;;;;;20.64;39.91;101381.25;5073164;28;20483;-81
2021/03/09 10:29:13;;;;;;;8.68;3.55;;;;;;;20.62;40.02;101371.66;5072977;28;20024;-81
2021/03/09 10:31:49;;;;;;;12.07;4.35;;;;;;;20.64;39.93;101370.13;5069057;28;20098;-81
2021/03/09 10:34:20;;;;;;;8.05;3.90;;;;;;;20.81;39.64;101374.44;5072520;28;20035;-82
2021/03/09 10:37:00;;;;;;;7.32;3.95;;;;;;;20.75;39.59;101365.59;5072604;28;20162;-82
2021/03/09 10:39:27;;;;;;;;;;;;;;;20.75;39.55;101351.69;5071773;28;20166;-82
2021/03/09 10:41:53;;;;;;;10.18;3.05;;;;;;;20.94;39.32;101356.44;5069480;28;20255;-83
2021/03/09 10:44:29;;;;;;;6.55;2.95;;;;;;;20.77;39.58;101338.25;5072334;28;20107;-81
2021/03/09 10:46:55;;;;;;;15.90;4.38;;;;;;;20.87;39.64;101347.97;5072673;28;20099;-81
2021/03/09 10:49:21;;;;;;;11.52;3.67;;;;;;;20.84;39.70;101357.03;5071805;28;20028;-81
2021/03/09 10:51:47;;;;;;;7.22;2.75;;;;;;;21.02;39.21;101347.06;5072643;28;20029;-81
2021/03/09 10:54:13;;;;;;;7.22;3.10;;;;;;;21.05;39.38;101340.75;5072726;28;20374;-80
2021/03/09 10:56:39;;;;;;;12.05;3.55;;;;;;;21.18;39.06;101329.47;5071588;28;20026;-80
2021/03/09 10:59:05;;;;;;;6.35;2.50;;;;;;;21.06;39.21;101330.44;5071523;28;20048;-81
2021/03/09 11:01:31;;;;;;;6.45;2.67;;;;;;;21.19;38.80;101333.84;5070587;28;20029;-82
2021/03/09 11:03:57;;;;;;;9.10;2.97;;;;;;;21.20;38.75;101316.00;5072238;28;20050;-80
2021/03/09 11:06:22;;;;;;;6.90;2.53;;;;;;;21.27;38.76;101319.72;5071239;28;20017;-81
2021/03/09 11:08:48;;;;;;;9.10;2.70;;;;;;;21.16;38.94;101309.56;5071333;28;20098;-81
2021/03/09 11:11:13;;;;;;;13.60;5.05;;;;;;;21.27;38.74;101296.66;5072433;28;20020;-84
2021/03/09 11:13:39;;;;;;;8.70;2.72;;;;;;;21.19;38.89;101306.06;5072514;28;20048;-82
2021/03/09 11:16:05;;;;;;;7.40;3.90;;;;;;;21.14;38.98;101295.25;5071585;28;20488;-81
2021/03/09 11:18:30;;;;;;;19.55;8.02;;;;;;;21.32;38.64;101293.59;5072233;28;20036;-80
2021/03/09 11:20:56;;;;;;;58.45;49.65;;;;;;;21.10;39.02;101286.84;5072167;28;20070;-81
2021/03/09 11:23:21;;;;;;;26.77;15.88;;;;;;;21.46;38.17;101287.44;5071356;28;20074;-80
2021/03/09 11:25:47;;;;;;;6.82;3.30;;;;;;;21.33;38.49;101284.09;5072476;28;20362;-80
2021/03/09 11:28:12;;;;;;;18.00;5.60;;;;;;;21.38;38.24;101274.59;5072257;28;20016;-82